Time,TemperatureF,DewpointF,PressureIn,WindDirection,WindDirectionDegrees,WindSpeedMPH,WindSpeedGustMPH,Humidity,HourlyPrecipIn,Conditions,Clouds,dailyrainin,SoftwareType,DateUTC
2013-09-10 00:00:00,47.9,46.8,29.90,ESE,105,0.0,10.0,96,0.00,,,0.00,Wunderground v.1.15,2013-09-10 04:00:00,
2013-09-10 00:04:00,48.0,46.9,29.90,ESE,104,0.0,10.0,96,0.00,,,0.00,Wunderground v.1.15,2013-09-10 04:04:00,
2013-09-10 00:10:00,48.1,47.0,29.90,ESE,105,0.0,10.0,96,0.00,,,0.00,Wunderground v.1.15,2013-09-10 04:10:00,
2013-09-10 00:15:00,48.1,47.0,29.90,ESE,105,0.0,10.0,96,0.00,,,0.00,Wunderground v.1.15,2013-09-10 04:15:00,
2013-09-10 00:20:00,47.9,46.8,29.90,ESE,105,0.0,10.0,96,0.00,,,0.00,Wunderground v.1.15,2013-09-10 04:20:00,
2013-09-10 00:25:00,48.0,46.9,29.90,SE,126,0.0,10.0,96,0.00,,,0.00,Wunderground v.1.15,2013-09-10 04:25:00,
2013-09-10 00:35:00,47.6,46.5,29.90,SE,125,0.0,10.0,96,0.00,,,0.00,Wunderground v.1.15,2013-09-10 04:35:00,
2013-09-10 00:40:00,47.8,46.7,29.90,East,79,0.0,10.0,96,0.00,,,0.00,Wunderground v.1.15,2013-09-10 04:40:00,
2013-09-10 00:45:00,47.6,46.5,29.90,East,79,0.0,10.0,96,0.00,,,0.00,Wunderground v.1.15,2013-09-10 04:45:00,
2013-09-10 00:50:00,47.4,46.3,29.90,SE,139,0.0,10.0,96,0.00,,,0.00,Wunderground v.1.15,2013-09-10 04:50:00,
2013-09-10 01:00:00,47.1,46.0,29.90,SE,139,0.0,10.0,96,0.00,,,0.00,Wunderground v.1.15,2013-09-10 05:00:00,
2013-09-10 01:05:00,47.0,45.9,29.90,SE,139,0.0,10.0,96,0.00,,,0.00,Wunderground v.1.15,2013-09-10 05:05:00,
2013-09-10 01:10:00,46.8,45.7,29.90,SE,139,0.0,10.0,96,0.00,,,0.00,Wunderground v.1.15,2013-09-10 05:10:00,
2013-09-10 01:14:00,46.7,45.6,29.90,ESE,115,0.0,10.0,96,0.00,,,0.00,Wunderground v.1.15,2013-09-10 05:14:00,
2013-09-10 01:20:00,46.8,46.0,29.90,ESE,115,0.0,10.0,97,0.00,,,0.00,Wunderground v.1.15,2013-09-10 05:20:00,
2013-09-10 01:25:00,46.7,45.6,29.90,ESE,115,0.0,10.0,96,0.00,,,0.00,Wunderground v.1.15,2013-09-10 05:25:00,
2013-09-10 01:30:00,46.5,45.4,29.90,ESE,115,0.0,10.0,96,0.00,,,0.00,Wunderground v.1.15,2013-09-10 05:30:00,
2013-09-10 01:35:00,46.4,45.3,29.91,ESE,115,0.0,10.0,96,0.00,,,0.00,Wunderground v.1.15,2013-09-10 05:35:00,
2013-09-10 01:45:00,46.4,45.6,29.90,SSE,156,0.0,10.0,97,0.00,,,0.00,Wunderground v.1.15,2013-09-10 05:45:00,
2013-09-10 01:50:00,46.3,45.2,29.91,SSE,155,0.0,10.0,96,0.00,,,0.00,Wunderground v.1.15,2013-09-10 05:50:00,
2013-09-10 01:55:00,46.1,45.0,29.91,SSE,156,0.0,10.0,96,0.00,,,0.00,Wunderground v.1.15,2013-09-10 05:55:00,
2013-09-10 02:00:00,46.1,45.3,29.91,SSE,155,0.0,10.0,97,0.00,,,0.00,Wunderground v.1.15,2013-09-10 06:00:00,
2013-09-10 02:10:00,46.0,45.2,29.91,SSE,156,0.0,10.0,97,0.00,,,0.00,Wunderground v.1.15,2013-09-10 06:10:00,
2013-09-10 02:15:00,46.1,45.3,29.91,SSE,155,0.0,10.0,97,0.00,,,0.00,Wunderground v.1.15,2013-09-10 06:15:00,
2013-09-10 02:20:00,46.1,45.3,29.91,SSE,155,0.0,10.0,97,0.00,,,0.00,Wunderground v.1.15,2013-09-10 06:20:00,
2013-09-10 02:25:00,45.8,45.0,29.92,SSE,155,0.0,10.0,97,0.00,,,0.00,Wunderground v.1.15,2013-09-10 06:25:00,
2013-09-10 02:35:00,45.8,45.0,29.91,SSE,155,0.0,10.0,97,0.00,,,0.00,Wunderground v.1.15,2013-09-10 06:35:00,
2013-09-10 02:40:00,45.9,45.1,29.91,SSE,155,0.0,10.0,97,0.00,,,0.00,Wunderground v.1.15,2013-09-10 06:40:00,
2013-09-10 02:45:00,46.1,45.3,29.91,SSE,155,0.0,10.0,97,0.00,,,0.00,Wunderground v.1.15,2013-09-10 06:45:00,
2013-09-10 02:55:00,46.2,45.4,29.91,SSE,155,0.0,10.0,97,0.00,,,0.00,Wunderground v.1.15,2013-09-10 06:55:00,
2013-09-10 03:00:00,46.3,45.5,29.91,SSE,155,0.0,10.0,97,0.00,,,0.00,Wunderground v.1.15,2013-09-10 07:00:00,
2013-09-10 03:05:00,46.3,45.5,29.91,SSE,155,0.0,10.0,97,0.00,,,0.00,Wunderground v.1.15,2013-09-10 07:05:00,
2013-09-10 03:10:00,46.3,45.5,29.91,SSE,155,0.0,10.0,97,0.00,,,0.00,Wunderground v.1.15,2013-09-10 07:10:00,
2013-09-10 03:20:00,46.5,45.7,29.90,SSE,155,0.0,10.0,97,0.00,,,0.00,Wunderground v.1.15,2013-09-10 07:20:00,
2013-09-10 03:25:00,46.6,45.8,29.89,SSE,155,0.0,10.0,97,0.00,,,0.00,Wunderground v.1.15,2013-09-10 07:25:00,
2013-09-10 03:30:00,46.8,46.0,29.88,SSE,155,0.0,10.0,97,0.00,,,0.00,Wunderground v.1.15,2013-09-10 07:30:00,
2013-09-10 03:35:00,46.6,45.8,29.88,SSE,155,0.0,10.0,97,0.00,,,0.00,Wunderground v.1.15,2013-09-10 07:35:00,
2013-09-10 03:45:00,46.4,45.6,29.88,West,268,0.0,10.0,97,0.00,,,0.00,Wunderground v.1.15,2013-09-10 07:45:00,
2013-09-10 03:50:00,46.4,45.6,29.88,NE,38,0.0,10.0,97,0.00,,,0.00,Wunderground v.1.15,2013-09-10 07:50:00,
2013-09-10 03:55:00,46.3,45.5,29.88,NE,45,0.0,10.0,97,0.00,,,0.00,Wunderground v.1.15,2013-09-10 07:55:00,
2013-09-10 04:05:00,46.2,45.4,29.88,NE,45,0.0,10.0,97,0.00,,,0.00,Wunderground v.1.15,2013-09-10 08:05:00,
2013-09-10 04:10:00,46.1,45.3,29.89,East,88,0.0,10.0,97,0.00,,,0.00,Wunderground v.1.15,2013-09-10 08:10:00,
2013-09-10 04:15:00,46.1,45.3,29.89,East,88,0.0,10.0,97,0.00,,,0.00,Wunderground v.1.15,2013-09-10 08:15:00,
2013-09-10 04:20:00,46.0,45.2,29.89,East,88,0.0,10.0,97,0.00,,,0.00,Wunderground v.1.15,2013-09-10 08:20:00,
2013-09-10 04:30:00,46.5,46.0,29.90,NE,50,0.0,10.0,98,0.00,,,0.00,Wunderground v.1.15,2013-09-10 08:30:00,
2013-09-10 04:35:00,46.4,45.6,29.89,NE,50,0.0,10.0,97,0.00,,,0.00,Wunderground v.1.15,2013-09-10 08:35:00,
2013-09-10 04:40:00,46.5,45.7,29.89,NE,50,0.0,10.0,97,0.00,,,0.00,Wunderground v.1.15,2013-09-10 08:40:00,
2013-09-10 04:49:00,46.6,45.8,29.89,ESE,110,0.0,10.0,97,0.00,,,0.00,Wunderground v.1.15,2013-09-10 08:49:00,
2013-09-10 04:55:00,46.7,45.9,29.89,ESE,110,0.0,10.0,97,0.00,,,0.00,Wunderground v.1.15,2013-09-10 08:55:00,
2013-09-10 05:00:00,46.7,46.2,29.90,SE,131,0.0,10.0,98,0.00,,,0.00,Wunderground v.1.15,2013-09-10 09:00:00,
2013-09-10 05:05:00,46.7,45.9,29.90,SE,131,0.0,10.0,97,0.00,,,0.00,Wunderground v.1.15,2013-09-10 09:05:00,
2013-09-10 05:10:00,46.6,45.8,29.89,ESE,102,0.0,10.0,97,0.00,,,0.00,Wunderground v.1.15,2013-09-10 09:10:00,
2013-09-10 05:20:00,46.3,45.5,29.89,ESE,102,0.0,10.0,97,0.00,,,0.00,Wunderground v.1.15,2013-09-10 09:20:00,
2013-09-10 05:25:00,46.2,45.4,29.89,ESE,102,0.0,10.0,97,0.00,,,0.00,Wunderground v.1.15,2013-09-10 09:25:00,
2013-09-10 05:30:00,46.3,45.5,29.89,ESE,102,0.0,10.0,97,0.00,,,0.00,Wunderground v.1.15,2013-09-10 09:30:00,
2013-09-10 05:40:00,46.5,46.0,29.89,East,96,0.0,10.0,98,0.00,,,0.00,Wunderground v.1.15,2013-09-10 09:40:00,
2013-09-10 05:45:00,46.6,46.1,29.89,East,97,0.0,10.0,98,0.00,,,0.00,Wunderground v.1.15,2013-09-10 09:45:00,
2013-09-10 05:50:00,46.3,45.5,29.89,East,97,0.0,10.0,97,0.00,,,0.00,Wunderground v.1.15,2013-09-10 09:50:00,
2013-09-10 05:59:00,46.0,45.2,29.89,East,97,0.0,10.0,97,0.00,,,0.00,Wunderground v.1.15,2013-09-10 09:59:00,
2013-09-10 06:05:00,46.0,45.2,29.89,East,97,0.0,10.0,97,0.00,,,0.00,Wunderground v.1.15,2013-09-10 10:05:00,
2013-09-10 06:10:00,46.2,45.7,29.89,East,97,0.0,10.0,98,0.00,,,0.00,Wunderground v.1.15,2013-09-10 10:10:00,
2013-09-10 06:15:00,46.1,45.3,29.89,East,97,0.0,10.0,97,0.00,,,0.00,Wunderground v.1.15,2013-09-10 10:15:00,
2013-09-10 06:20:00,46.1,45.6,29.88,East,97,0.0,10.0,98,0.00,,,0.00,Wunderground v.1.15,2013-09-10 10:20:00,
2013-09-10 06:30:00,46.4,45.9,29.88,East,97,0.0,10.0,98,0.00,,,0.00,Wunderground v.1.15,2013-09-10 10:30:00,
2013-09-10 06:35:00,46.5,46.0,29.89,East,97,0.0,10.0,98,0.00,,,0.00,Wunderground v.1.15,2013-09-10 10:35:00,
2013-09-10 06:40:00,46.7,46.2,29.89,East,97,0.0,10.0,98,0.00,,,0.00,Wunderground v.1.15,2013-09-10 10:40:00,
2013-09-10 06:50:00,47.2,46.7,29.88,East,97,0.0,10.0,98,0.00,,,0.00,Wunderground v.1.15,2013-09-10 10:50:00,
2013-09-10 06:55:00,47.5,47.0,29.89,East,97,0.0,10.0,98,0.00,,,0.00,Wunderground v.1.15,2013-09-10 10:55:00,
2013-09-10 07:00:00,47.7,47.2,29.89,East,96,0.0,10.0,98,0.00,,,0.00,Wunderground v.1.15,2013-09-10 11:00:00,
2013-09-10 07:10:00,48.1,47.6,29.90,East,98,0.0,10.0,98,0.00,,,0.00,Wunderground v.1.15,2013-09-10 11:10:00,
2013-09-10 07:15:00,48.3,47.8,29.90,East,98,0.0,10.0,98,0.00,,,0.00,Wunderground v.1.15,2013-09-10 11:15:00,
2013-09-10 07:20:00,48.6,48.1,29.89,SE,143,0.0,10.0,98,0.00,,,0.00,Wunderground v.1.15,2013-09-10 11:20:00,
2013-09-10 07:25:00,48.7,48.2,29.89,SE,143,0.0,10.0,98,0.00,,,0.00,Wunderground v.1.15,2013-09-10 11:25:00,
2013-09-10 07:35:00,49.1,48.6,29.88,SE,142,0.0,10.0,98,0.00,,,0.00,Wunderground v.1.15,2013-09-10 11:35:00,
2013-09-10 07:40:00,49.6,49.1,29.88,SE,142,0.0,10.0,98,0.00,,,0.00,Wunderground v.1.15,2013-09-10 11:40:00,
2013-09-10 07:45:00,50.1,49.6,29.87,SE,143,0.0,10.0,98,0.00,,,0.00,Wunderground v.1.15,2013-09-10 11:45:00,
2013-09-10 07:50:00,50.4,49.9,29.88,SE,143,0.0,10.0,98,0.00,,,0.00,Wunderground v.1.15,2013-09-10 11:50:00,
2013-09-10 07:55:00,50.6,50.1,29.88,SSW,197,0.0,10.0,98,0.00,,,0.00,Wunderground v.1.15,2013-09-10 11:55:00,
2013-09-10 08:05:00,51.6,51.1,29.88,SSE,168,0.0,10.0,98,0.00,,,0.00,Wunderground v.1.15,2013-09-10 12:05:00,
2013-09-10 08:10:00,51.9,51.4,29.88,SSE,160,0.0,10.0,98,0.00,,,0.00,Wunderground v.1.15,2013-09-10 12:10:00,
2013-09-10 08:15:00,52.6,52.1,29.88,SSE,161,0.0,10.0,98,0.00,,,0.00,Wunderground v.1.15,2013-09-10 12:15:00,
2013-09-10 08:25:00,53.3,52.8,29.88,SW,214,0.0,10.0,98,0.00,,,0.00,Wunderground v.1.15,2013-09-10 12:25:00,
2013-09-10 08:30:00,54.0,53.2,29.87,SW,214,0.0,10.0,97,0.00,,,0.00,Wunderground v.1.15,2013-09-10 12:30:00,
2013-09-10 08:35:00,54.5,53.4,29.87,SW,217,0.0,10.0,96,0.00,,,0.00,Wunderground v.1.15,2013-09-10 12:35:00,
2013-09-10 08:40:00,55.1,54.0,29.87,SW,217,0.0,10.0,96,0.00,,,0.00,Wunderground v.1.15,2013-09-10 12:40:00,
2013-09-10 08:50:00,56.0,54.3,29.87,SW,236,0.0,10.0,94,0.00,,,0.00,Wunderground v.1.15,2013-09-10 12:50:00,
2013-09-10 08:55:00,56.7,55.0,29.88,SW,236,0.0,10.0,94,0.00,,,0.00,Wunderground v.1.15,2013-09-10 12:55:00,
2013-09-10 09:00:00,57.5,55.2,29.88,SW,236,0.0,10.0,92,0.00,,,0.00,Wunderground v.1.15,2013-09-10 13:00:00,
2013-09-10 09:05:00,58.0,55.7,29.88,SW,234,0.0,10.0,92,0.00,,,0.00,Wunderground v.1.15,2013-09-10 13:05:00,
2013-09-10 09:15:00,58.7,55.5,29.88,South,189,1.0,10.0,89,0.00,,,0.00,Wunderground v.1.15,2013-09-10 13:15:00,
2013-09-10 09:20:00,59.0,55.4,29.88,SW,221,1.0,10.0,88,0.00,,,0.00,Wunderground v.1.15,2013-09-10 13:20:00,
2013-09-10 09:25:00,59.2,55.6,29.87,SSW,208,1.0,10.0,88,0.00,,,0.00,Wunderground v.1.15,2013-09-10 13:25:00,
2013-09-10 09:35:00,59.6,56.0,29.86,SW,232,2.0,10.0,88,0.00,,,0.00,Wunderground v.1.15,2013-09-10 13:35:00,
2013-09-10 09:40:00,59.9,56.3,29.86,SW,232,2.0,2.0,88,0.00,,,0.00,Wunderground v.1.15,2013-09-10 13:40:00,
2013-09-10 09:45:00,60.3,56.4,29.86,SSW,208,2.0,3.0,87,0.00,,,0.00,Wunderground v.1.15,2013-09-10 13:45:00,
2013-09-10 09:50:00,60.5,56.6,29.86,South,178,3.0,10.0,87,0.00,,,0.00,Wunderground v.1.15,2013-09-10 13:50:00,
2013-09-10 10:00:00,61.1,56.9,29.86,SSW,198,2.0,10.0,86,0.00,,,0.00,Wunderground v.1.15,2013-09-10 14:00:00,
2013-09-10 10:05:00,61.3,57.1,29.86,SSE,165,3.0,10.0,86,0.00,,,0.00,Wunderground v.1.15,2013-09-10 14:05:00,
2013-09-10 10:10:00,61.3,57.1,29.85,South,170,4.0,4.0,86,0.00,,,0.00,Wunderground v.1.15,2013-09-10 14:10:00,
2013-09-10 10:15:00,61.3,57.1,29.85,South,182,4.0,10.0,86,0.00,,,0.00,Wunderground v.1.15,2013-09-10 14:15:00,
2013-09-10 10:25:00,61.3,57.1,29.85,SSE,158,3.0,10.0,86,0.00,,,0.00,Wunderground v.1.15,2013-09-10 14:25:00,
2013-09-10 10:30:00,61.3,57.4,29.85,SSW,195,4.0,4.0,87,0.00,,,0.00,Wunderground v.1.15,2013-09-10 14:30:00,
2013-09-10 10:35:00,61.2,57.3,29.85,South,176,4.0,10.0,87,0.00,,,0.00,Wunderground v.1.15,2013-09-10 14:35:00,
2013-09-10 10:45:00,61.4,57.5,29.86,SSW,198,2.0,10.0,87,0.00,,,0.00,Wunderground v.1.15,2013-09-10 14:45:00,
2013-09-10 10:50:00,61.4,57.5,29.86,SSW,212,2.0,10.0,87,0.00,,,0.00,Wunderground v.1.15,2013-09-10 14:50:00,
2013-09-10 10:55:00,61.6,58.0,29.86,SE,139,3.0,10.0,88,0.00,,,0.00,Wunderground v.1.15,2013-09-10 14:55:00,
2013-09-10 11:00:00,61.9,58.3,29.86,SSE,152,2.0,2.0,88,0.00,,,0.00,Wunderground v.1.15,2013-09-10 15:00:00,
2013-09-10 11:10:00,62.3,58.7,29.86,SE,134,2.0,10.0,88,0.00,,,0.00,Wunderground v.1.15,2013-09-10 15:10:00,
2013-09-10 11:15:00,62.6,59.0,29.86,SE,146,1.0,10.0,88,0.00,,,0.00,Wunderground v.1.15,2013-09-10 15:15:00,
2013-09-10 11:20:00,62.7,59.1,29.85,SE,140,1.0,10.0,88,0.00,,,0.00,Wunderground v.1.15,2013-09-10 15:20:00,
2013-09-10 11:29:00,63.0,59.7,29.84,ESE,108,1.0,1.0,89,0.00,,,0.00,Wunderground v.1.15,2013-09-10 15:29:00,
2013-09-10 11:35:00,63.2,60.2,29.83,SE,136,1.0,10.0,90,0.00,,,0.00,Wunderground v.1.15,2013-09-10 15:35:00,
2013-09-10 11:40:00,63.4,60.4,29.83,ESE,121,1.0,1.0,90,0.00,,,0.00,Wunderground v.1.15,2013-09-10 15:40:00,
2013-09-10 11:45:00,63.5,60.5,29.83,South,173,2.0,2.0,90,0.00,,,0.00,Wunderground v.1.15,2013-09-10 15:45:00,
2013-09-10 11:55:00,63.7,61.0,29.83,South,169,1.0,10.0,91,0.00,,,0.00,Wunderground v.1.15,2013-09-10 15:55:00,
2013-09-10 12:00:00,63.7,61.0,29.83,WSW,245,0.0,10.0,91,0.00,,,0.00,Wunderground v.1.15,2013-09-10 16:00:00,
2013-09-10 12:05:00,63.6,61.2,29.84,SSE,164,1.0,10.0,92,0.00,,,0.01,Wunderground v.1.15,2013-09-10 16:05:00,
2013-09-10 12:10:00,63.6,61.2,29.84,SW,217,1.0,1.0,92,0.00,,,0.01,Wunderground v.1.15,2013-09-10 16:10:00,
2013-09-10 12:20:00,63.3,61.2,29.84,SSE,153,0.0,10.0,93,0.00,,,0.01,Wunderground v.1.15,2013-09-10 16:20:00,
2013-09-10 12:25:00,63.2,61.4,29.84,SE,141,0.0,10.0,94,0.04,,,0.02,Wunderground v.1.15,2013-09-10 16:25:00,
2013-09-10 12:30:00,63.1,61.3,29.84,South,181,0.0,10.0,94,0.34,,,0.06,Wunderground v.1.15,2013-09-10 16:30:00,
2013-09-10 12:39:00,63.0,61.5,29.84,SW,233,0.0,10.0,95,0.10,,,0.08,Wunderground v.1.15,2013-09-10 16:39:00,
2013-09-10 12:45:00,63.0,61.5,29.84,South,179,0.0,10.0,95,0.07,,,0.08,Wunderground v.1.15,2013-09-10 16:45:00,
2013-09-10 12:50:00,63.1,61.6,29.84,WSW,239,0.0,10.0,95,0.06,,,0.09,Wunderground v.1.15,2013-09-10 16:50:00,
2013-09-10 12:55:00,63.1,61.6,29.84,South,172,0.0,10.0,95,0.06,,,0.09,Wunderground v.1.15,2013-09-10 16:55:00,
2013-09-10 13:00:00,63.2,62.0,29.84,SSE,167,0.0,10.0,96,0.06,,,0.10,Wunderground v.1.15,2013-09-10 17:00:00,
2013-09-10 13:10:00,63.4,62.2,29.83,SE,138,1.0,10.0,96,0.04,,,0.10,Wunderground v.1.15,2013-09-10 17:10:00,
2013-09-10 13:15:00,63.6,62.4,29.83,SSE,160,1.0,10.0,96,0.00,,,0.10,Wunderground v.1.15,2013-09-10 17:15:00,
2013-09-10 13:20:00,63.9,62.7,29.82,SE,142,1.0,10.0,96,0.00,,,0.11,Wunderground v.1.15,2013-09-10 17:20:00,
2013-09-10 13:25:00,64.1,62.9,29.82,WSW,244,1.0,10.0,96,0.00,,,0.11,Wunderground v.1.15,2013-09-10 17:25:00,
2013-09-10 13:35:00,64.4,62.9,29.82,South,179,2.0,10.0,95,0.00,,,0.11,Wunderground v.1.15,2013-09-10 17:35:00,
2013-09-10 13:40:00,64.6,63.4,29.82,SW,226,2.0,2.0,96,0.00,,,0.11,Wunderground v.1.15,2013-09-10 17:40:00,
2013-09-10 13:45:00,64.7,63.2,29.82,SW,230,1.0,10.0,95,0.00,,,0.11,Wunderground v.1.15,2013-09-10 17:45:00,
2013-09-10 13:54:00,64.9,63.7,29.82,WSW,258,2.0,10.0,96,0.00,,,0.11,Wunderground v.1.15,2013-09-10 17:54:00,
2013-09-10 14:00:00,65.0,63.8,29.81,WSW,250,2.0,2.0,96,0.00,,,0.11,Wunderground v.1.15,2013-09-10 18:00:00,
2013-09-10 14:05:00,65.1,63.6,29.81,SSW,195,2.0,10.0,95,0.00,,,0.11,Wunderground v.1.15,2013-09-10 18:05:00,
2013-09-10 14:10:00,65.3,64.1,29.81,WSW,243,1.0,10.0,96,0.00,,,0.11,Wunderground v.1.15,2013-09-10 18:10:00,
2013-09-10 14:24:00,65.6,64.4,29.81,WSW,240,1.0,10.0,96,0.00,,,0.11,Wunderground v.1.15,2013-09-10 18:24:00,
2013-09-10 14:29:00,65.8,64.6,29.81,WSW,250,1.0,10.0,96,0.00,,,0.12,Wunderground v.1.15,2013-09-10 18:29:00,
2013-09-10 14:35:00,66.0,64.5,29.81,WSW,245,1.0,10.0,95,0.00,,,0.12,Wunderground v.1.15,2013-09-10 18:35:00,
2013-09-10 14:40:00,66.2,65.0,29.80,WSW,247,1.0,1.0,96,0.00,,,0.12,Wunderground v.1.15,2013-09-10 18:40:00,
2013-09-10 14:45:00,66.5,65.3,29.80,WSW,243,0.0,10.0,96,0.00,,,0.12,Wunderground v.1.15,2013-09-10 18:45:00,
2013-09-10 14:55:00,67.0,65.8,29.80,SSW,212,0.0,10.0,96,0.00,,,0.12,Wunderground v.1.15,2013-09-10 18:55:00,
2013-09-10 15:00:00,67.3,65.8,29.80,West,265,0.0,10.0,95,0.00,,,0.12,Wunderground v.1.15,2013-09-10 19:00:00,
2013-09-10 15:05:00,67.6,66.1,29.80,West,278,0.0,10.0,95,0.00,,,0.12,Wunderground v.1.15,2013-09-10 19:05:00,
2013-09-10 15:10:00,67.8,66.3,29.80,SW,219,1.0,10.0,95,0.00,,,0.12,Wunderground v.1.15,2013-09-10 19:10:00,
2013-09-10 15:20:00,68.3,66.5,29.80,SW,233,1.0,1.0,94,0.00,,,0.12,Wunderground v.1.15,2013-09-10 19:20:00,
2013-09-10 15:25:00,68.3,66.2,29.80,WNW,292,1.0,2.0,93,0.00,,,0.12,Wunderground v.1.15,2013-09-10 19:25:00,
2013-09-10 15:30:00,68.3,66.2,29.80,WSW,237,2.0,2.0,93,0.00,,,0.12,Wunderground v.1.15,2013-09-10 19:30:00,
2013-09-10 15:40:00,68.2,65.8,29.81,West,275,3.0,10.0,92,0.00,,,0.12,Wunderground v.1.15,2013-09-10 19:40:00,
2013-09-10 15:45:00,68.4,66.3,29.81,WSW,257,3.0,10.0,93,0.00,,,0.12,Wunderground v.1.15,2013-09-10 19:45:00,
2013-09-10 15:50:00,68.6,66.5,29.81,West,264,2.0,2.0,93,0.00,,,0.12,Wunderground v.1.15,2013-09-10 19:50:00,
2013-09-10 15:55:00,69.0,66.3,29.80,NW,307,3.0,4.0,91,0.00,,,0.12,Wunderground v.1.15,2013-09-10 19:55:00,
2013-09-10 16:05:00,69.5,66.4,29.80,WSW,248,4.0,10.0,90,0.00,,,0.12,Wunderground v.1.15,2013-09-10 20:05:00,
2013-09-10 16:10:00,69.6,66.5,29.81,WSW,245,3.0,3.0,90,0.00,,,0.12,Wunderground v.1.15,2013-09-10 20:10:00,
2013-09-10 16:15:00,69.6,66.5,29.81,SW,231,3.0,4.0,90,0.00,,,0.12,Wunderground v.1.15,2013-09-10 20:15:00,
2013-09-10 16:20:00,69.8,66.7,29.80,WSW,249,3.0,3.0,90,0.00,,,0.12,Wunderground v.1.15,2013-09-10 20:20:00,
2013-09-10 16:30:00,70.4,67.0,29.80,SSW,209,3.0,10.0,89,0.00,,,0.12,Wunderground v.1.15,2013-09-10 20:30:00,
2013-09-10 16:35:00,70.7,67.0,29.80,SW,234,3.0,10.0,88,0.00,,,0.12,Wunderground v.1.15,2013-09-10 20:35:00,
2013-09-10 16:40:00,70.9,67.2,29.80,SW,214,3.0,3.0,88,0.00,,,0.12,Wunderground v.1.15,2013-09-10 20:40:00,
2013-09-10 16:50:00,70.9,66.8,29.80,West,277,4.0,4.0,87,0.00,,,0.12,Wunderground v.1.15,2013-09-10 20:50:00,
2013-09-10 16:55:00,70.8,67.1,29.80,WSW,243,4.0,5.0,88,0.00,,,0.12,Wunderground v.1.15,2013-09-10 20:55:00,
2013-09-10 17:00:00,71.1,67.4,29.80,SW,231,3.0,10.0,88,0.00,,,0.12,Wunderground v.1.15,2013-09-10 21:00:00,
2013-09-10 17:10:00,71.4,67.3,29.80,WSW,238,3.0,3.0,87,0.00,,,0.12,Wunderground v.1.15,2013-09-10 21:10:00,
2013-09-10 17:15:00,71.6,67.2,29.81,WNW,288,2.0,10.0,86,0.00,,,0.12,Wunderground v.1.15,2013-09-10 21:15:00,
2013-09-10 17:20:00,71.3,67.2,29.81,WSW,253,3.0,10.0,87,0.00,,,0.12,Wunderground v.1.15,2013-09-10 21:20:00,
2013-09-10 17:30:00,70.8,67.1,29.81,SW,230,4.0,10.0,88,0.00,,,0.12,Wunderground v.1.15,2013-09-10 21:30:00,
2013-09-10 17:35:00,70.7,67.0,29.81,WSW,243,4.0,10.0,88,0.00,,,0.12,Wunderground v.1.15,2013-09-10 21:35:00,
2013-09-10 17:40:00,70.6,67.2,29.81,WSW,243,3.0,10.0,89,0.00,,,0.12,Wunderground v.1.15,2013-09-10 21:40:00,
2013-09-10 17:45:00,70.4,67.0,29.81,SSW,212,2.0,10.0,89,0.00,,,0.12,Wunderground v.1.15,2013-09-10 21:45:00,
2013-09-10 17:55:00,70.3,67.2,29.80,SSE,153,0.0,10.0,90,0.00,,,0.12,Wunderground v.1.15,2013-09-10 21:55:00,
2013-09-10 18:00:00,70.5,67.4,29.80,South,177,1.0,10.0,90,0.00,,,0.12,Wunderground v.1.15,2013-09-10 22:00:00,
2013-09-10 18:05:00,70.7,67.6,29.81,South,181,1.0,10.0,90,0.00,,,0.12,Wunderground v.1.15,2013-09-10 22:05:00,
2013-09-10 18:10:00,70.7,67.6,29.81,SSW,199,0.0,10.0,90,0.00,,,0.12,Wunderground v.1.15,2013-09-10 22:10:00,
2013-09-10 18:19:00,70.5,67.4,29.81,WSW,238,0.0,10.0,90,0.00,,,0.12,Wunderground v.1.15,2013-09-10 22:19:00,
2013-09-10 18:25:00,70.2,67.4,29.81,WSW,237,0.0,10.0,91,0.00,,,0.12,Wunderground v.1.15,2013-09-10 22:25:00,
2013-09-10 18:30:00,70.0,67.6,29.81,WSW,237,0.0,10.0,92,0.00,,,0.12,Wunderground v.1.15,2013-09-10 22:30:00,
2013-09-10 18:35:00,69.7,67.3,29.81,WSW,237,0.0,10.0,92,0.00,,,0.12,Wunderground v.1.15,2013-09-10 22:35:00,
2013-09-10 18:44:00,69.2,67.1,29.81,WSW,237,0.0,10.0,93,0.00,,,0.12,Wunderground v.1.15,2013-09-10 22:44:00,
2013-09-10 18:50:00,69.1,67.3,29.81,WSW,237,0.0,10.0,94,0.00,,,0.12,Wunderground v.1.15,2013-09-10 22:50:00,
2013-09-10 18:55:00,68.9,67.1,29.81,WSW,237,0.0,10.0,94,0.00,,,0.12,Wunderground v.1.15,2013-09-10 22:55:00,
2013-09-10 19:00:00,68.7,66.9,29.82,SW,221,0.0,10.0,94,0.00,,,0.12,Wunderground v.1.15,2013-09-10 23:00:00,
2013-09-10 19:10:00,68.6,66.8,29.82,WSW,245,0.0,10.0,94,0.00,,,0.12,Wunderground v.1.15,2013-09-10 23:10:00,
2013-09-10 19:15:00,68.5,66.7,29.82,WSW,245,0.0,10.0,94,0.00,,,0.12,Wunderground v.1.15,2013-09-10 23:15:00,
2013-09-10 19:20:00,68.4,66.6,29.82,WSW,245,0.0,10.0,94,0.00,,,0.12,Wunderground v.1.15,2013-09-10 23:20:00,
2013-09-10 19:25:00,68.3,66.8,29.82,South,176,0.0,10.0,95,0.00,,,0.12,Wunderground v.1.15,2013-09-10 23:25:00,
2013-09-10 19:35:00,68.4,66.9,29.83,SE,145,1.0,10.0,95,0.00,,,0.12,Wunderground v.1.15,2013-09-10 23:35:00,
2013-09-10 19:40:00,68.6,67.1,29.83,SSE,148,1.0,10.0,95,0.00,,,0.12,Wunderground v.1.15,2013-09-10 23:40:00,
2013-09-10 19:45:00,68.6,66.8,29.83,SE,127,1.0,10.0,94,0.00,,,0.12,Wunderground v.1.15,2013-09-10 23:45:00,
2013-09-10 19:55:00,68.5,66.7,29.83,SW,222,0.0,10.0,94,0.00,,,0.12,Wunderground v.1.15,2013-09-10 23:55:00,
2013-09-10 20:00:00,68.4,66.6,29.83,SW,222,0.0,10.0,94,0.00,,,0.12,Wunderground v.1.15,2013-09-11 00:00:00,
2013-09-10 20:05:00,68.3,66.5,29.84,SW,222,0.0,10.0,94,0.00,,,0.12,Wunderground v.1.15,2013-09-11 00:05:00,
2013-09-10 20:15:00,68.3,66.8,29.84,SW,222,0.0,10.0,95,0.00,,,0.12,Wunderground v.1.15,2013-09-11 00:15:00,
2013-09-10 20:20:00,68.1,66.6,29.84,SW,222,0.0,10.0,95,0.00,,,0.12,Wunderground v.1.15,2013-09-11 00:20:00,
2013-09-10 20:25:00,67.9,66.7,29.84,South,176,0.0,10.0,96,0.00,,,0.12,Wunderground v.1.15,2013-09-11 00:25:00,
2013-09-10 20:34:00,67.7,66.2,29.84,South,177,0.0,10.0,95,0.00,,,0.12,Wunderground v.1.15,2013-09-11 00:34:00,
2013-09-10 20:40:00,67.4,65.9,29.84,South,177,0.0,10.0,95,0.00,,,0.12,Wunderground v.1.15,2013-09-11 00:40:00,
2013-09-10 20:45:00,67.4,66.2,29.84,South,177,0.0,10.0,96,0.00,,,0.12,Wunderground v.1.15,2013-09-11 00:45:00,
2013-09-10 20:50:00,67.2,66.0,29.84,South,177,0.0,10.0,96,0.00,,,0.12,Wunderground v.1.15,2013-09-11 00:50:00,
2013-09-10 20:59:00,66.9,65.7,29.84,South,177,0.0,10.0,96,0.00,,,0.12,Wunderground v.1.15,2013-09-11 00:59:00,
2013-09-10 21:05:00,66.8,65.6,29.84,South,177,0.0,10.0,96,0.00,,,0.12,Wunderground v.1.15,2013-09-11 01:05:00,
2013-09-10 21:10:00,66.7,65.5,29.84,South,176,0.0,10.0,96,0.00,,,0.12,Wunderground v.1.15,2013-09-11 01:10:00,
2013-09-10 21:15:00,66.4,65.2,29.84,South,176,0.0,10.0,96,0.00,,,0.12,Wunderground v.1.15,2013-09-11 01:15:00,
2013-09-10 21:20:00,66.6,65.7,29.84,WSW,240,0.0,10.0,97,0.00,,,0.12,Wunderground v.1.15,2013-09-11 01:20:00,
2013-09-10 21:30:00,66.2,65.0,29.84,WSW,239,0.0,10.0,96,0.00,,,0.12,Wunderground v.1.15,2013-09-11 01:30:00,
2013-09-10 21:35:00,65.9,64.7,29.84,WSW,240,0.0,10.0,96,0.00,,,0.12,Wunderground v.1.15,2013-09-11 01:35:00,
2013-09-10 21:45:00,65.9,65.0,29.84,WSW,239,0.0,10.0,97,0.00,,,0.12,Wunderground v.1.15,2013-09-11 01:45:00,
2013-09-10 21:50:00,65.8,64.9,29.84,WSW,239,0.0,10.0,97,0.00,,,0.12,Wunderground v.1.15,2013-09-11 01:50:00,
2013-09-10 21:55:00,65.7,64.8,29.84,WSW,240,0.0,10.0,97,0.00,,,0.12,Wunderground v.1.15,2013-09-11 01:55:00,
2013-09-10 22:00:00,65.6,64.7,29.84,WSW,239,0.0,10.0,97,0.00,,,0.12,Wunderground v.1.15,2013-09-11 02:00:00,
2013-09-10 22:10:00,65.4,64.5,29.84,WSW,240,0.0,10.0,97,0.00,,,0.12,Wunderground v.1.15,2013-09-11 02:10:00,
2013-09-10 22:15:00,65.3,64.4,29.84,WSW,239,0.0,10.0,97,0.00,,,0.12,Wunderground v.1.15,2013-09-11 02:15:00,
2013-09-10 22:20:00,65.2,64.3,29.83,WSW,239,0.0,10.0,97,0.00,,,0.12,Wunderground v.1.15,2013-09-11 02:20:00,
2013-09-10 22:29:00,65.0,64.1,29.83,WSW,239,0.0,10.0,97,0.00,,,0.12,Wunderground v.1.15,2013-09-11 02:29:00,
2013-09-10 22:35:00,65.0,64.1,29.83,WSW,240,0.0,10.0,97,0.00,,,0.12,Wunderground v.1.15,2013-09-11 02:35:00,
2013-09-10 22:40:00,65.1,64.5,29.83,WSW,240,0.0,10.0,98,0.00,,,0.12,Wunderground v.1.15,2013-09-11 02:40:00,
2013-09-10 22:45:00,65.1,64.5,29.83,WSW,239,0.0,10.0,98,0.00,,,0.12,Wunderground v.1.15,2013-09-11 02:45:00,
2013-09-10 22:55:00,65.0,64.4,29.83,WSW,240,0.0,10.0,98,0.00,,,0.12,Wunderground v.1.15,2013-09-11 02:55:00,
2013-09-10 23:00:00,65.1,64.5,29.83,WSW,240,0.0,10.0,98,0.00,,,0.12,Wunderground v.1.15,2013-09-11 03:00:00,
2013-09-10 23:05:00,65.0,64.4,29.83,WSW,240,0.0,10.0,98,0.00,,,0.12,Wunderground v.1.15,2013-09-11 03:05:00,
2013-09-10 23:14:00,65.1,64.5,29.83,WSW,239,0.0,10.0,98,0.00,,,0.12,Wunderground v.1.15,2013-09-11 03:14:00,
2013-09-10 23:20:00,65.0,64.4,29.83,WSW,239,0.0,10.0,98,0.00,,,0.12,Wunderground v.1.15,2013-09-11 03:20:00,
2013-09-10 23:25:00,65.0,64.4,29.83,WSW,240,0.0,10.0,98,0.00,,,0.12,Wunderground v.1.15,2013-09-11 03:25:00,
2013-09-10 23:30:00,65.0,64.4,29.83,WSW,240,0.0,10.0,98,0.00,,,0.12,Wunderground v.1.15,2013-09-11 03:30:00,
2013-09-10 23:39:00,65.0,64.4,29.83,WSW,240,0.0,10.0,98,0.00,,,0.12,Wunderground v.1.15,2013-09-11 03:39:00,
2013-09-10 23:45:00,65.0,64.4,29.83,WSW,240,0.0,10.0,98,0.00,,,0.12,Wunderground v.1.15,2013-09-11 03:45:00,
2013-09-10 23:50:00,65.0,64.4,29.83,WSW,240,0.0,10.0,98,0.00,,,0.12,Wunderground v.1.15,2013-09-11 03:50:00,
2013-09-10 23:59:00,65.0,64.4,29.83,WSW,239,0.0,10.0,98,0.00,,,0.12,Wunderground v.1.15,2013-09-11 03:59:00,